sensor_id;sensor_type;location;lat;lon;timestamp;pressure;altitude;pressure_sealevel;temperature;humidity
12471;BME280;36499;46.484;13.832;2023-08-01T00:00:12;92716.28;;;17.49;87.67
12471;BME280;36499;46.484;13.832;2023-08-01T00:02:40;92717.34;;;17.48;88.00
12471;BME280;36499;46.484;13.832;2023-08-01T00:05:09;92727.63;;;17.45;88.29
12471;BME280;36499;46.484;13.832;2023-08-01T00:07:36;92722.88;;;17.42;88.47
12471;BME280;36499;46.484;13.832;2023-08-01T00:10:06;92720.25;;;17.42;88.40
12471;BME280;36499;46.484;13.832;2023-08-01T00:12:33;92717.88;;;17.45;88.73
12471;BME280;36499;46.484;13.832;2023-08-01T00:15:00;92718.66;;;17.41;89.00
12471;BME280;36499;46.484;13.832;2023-08-01T00:17:27;92712.56;;;17.20;91.62
12471;BME280;36499;46.484;13.832;2023-08-01T00:19:54;92713.38;;;17.25;91.55
12471;BME280;36499;46.484;13.832;2023-08-01T00:22:21;92705.44;;;17.20;91.81
12471;BME280;36499;46.484;13.832;2023-08-01T00:24:48;92708.06;;;17.10;93.82
12471;BME280;36499;46.484;13.832;2023-08-01T00:27:17;92700.97;;;17.11;94.19
12471;BME280;36499;46.484;13.832;2023-08-01T00:29:45;92705.19;;;17.22;93.66
12471;BME280;36499;46.484;13.832;2023-08-01T00:32:12;92699.38;;;17.20;91.22
12471;BME280;36499;46.484;13.832;2023-08-01T00:34:39;92695.44;;;17.12;90.05
12471;BME280;36499;46.484;13.832;2023-08-01T00:37:06;92685.44;;;17.14;90.77
12471;BME280;36499;46.484;13.832;2023-08-01T00:39:33;92683.56;;;17.20;90.44
12471;BME280;36499;46.484;13.832;2023-08-01T00:42:00;92679.66;;;17.22;90.29
12471;BME280;36499;46.484;13.832;2023-08-01T00:44:28;92680.72;;;17.26;89.73
12471;BME280;36499;46.484;13.832;2023-08-01T00:46:55;92676.47;;;17.25;89.27
12471;BME280;36499;46.484;13.832;2023-08-01T00:49:22;92663.28;;;17.20;88.86
12471;BME280;36499;46.484;13.832;2023-08-01T00:51:50;92656.19;;;17.16;88.63
12471;BME280;36499;46.484;13.832;2023-08-01T00:54:17;92651.69;;;17.16;88.71
12471;BME280;36499;46.484;13.832;2023-08-01T00:56:44;92655.66;;;17.09;88.68
12471;BME280;36499;46.484;13.832;2023-08-01T00:59:12;92645.66;;;17.06;89.69
12471;BME280;36499;46.484;13.832;2023-08-01T01:01:40;92646.94;;;17.08;90.35
12471;BME280;36499;46.484;13.832;2023-08-01T01:04:08;92640.63;;;17.09;91.17
12471;BME280;36499;46.484;13.832;2023-08-01T01:06:45;92639.84;;;17.09;91.32
12471;BME280;36499;46.484;13.832;2023-08-01T01:09:15;92635.38;;;17.04;90.26
12471;BME280;36499;46.484;13.832;2023-08-01T01:11:43;92632.47;;;17.01;88.93
12471;BME280;36499;46.484;13.832;2023-08-01T01:14:10;92629.06;;;17.00;88.37
12471;BME280;36499;46.484;13.832;2023-08-01T01:16:37;92627.47;;;16.99;89.23
12471;BME280;36499;46.484;13.832;2023-08-01T01:19:08;92625.91;;;17.03;89.19
12471;BME280;36499;46.484;13.832;2023-08-01T01:21:39;92623.25;;;17.08;89.19
12471;BME280;36499;46.484;13.832;2023-08-01T01:24:09;92611.16;;;17.07;89.52
12471;BME280;36499;46.484;13.832;2023-08-01T01:26:37;92612.19;;;17.06;89.38
12471;BME280;36499;46.484;13.832;2023-08-01T01:29:06;92605.88;;;17.02;88.71
12471;BME280;36499;46.484;13.832;2023-08-01T01:31:34;92606.91;;;17.01;88.62
12471;BME280;36499;46.484;13.832;2023-08-01T01:34:03;92605.84;;;16.97;88.13
12471;BME280;36499;46.484;13.832;2023-08-01T01:36:30;92605.88;;;16.92;88.27
12471;BME280;36499;46.484;13.832;2023-08-01T01:38:59;92605.34;;;16.90;88.82
12471;BME280;36499;46.484;13.832;2023-08-01T01:41:26;92602.44;;;16.87;89.91
12471;BME280;36499;46.484;13.832;2023-08-01T01:43:53;92602.97;;;16.89;90.38
12471;BME280;36499;46.484;13.832;2023-08-01T01:46:20;92600.59;;;16.87;91.41
12471;BME280;36499;46.484;13.832;2023-08-01T01:48:47;92609.31;;;16.93;91.33
12471;BME280;36499;46.484;13.832;2023-08-01T01:51:14;92604.03;;;16.77;91.12
12471;BME280;36499;46.484;13.832;2023-08-01T01:53:41;92608.47;;;16.62;92.59
12471;BME280;36499;46.484;13.832;2023-08-01T01:56:09;92610.59;;;16.70;92.38
12471;BME280;36499;46.484;13.832;2023-08-01T01:58:36;92603.22;;;16.72;92.48
12471;BME280;36499;46.484;13.832;2023-08-01T02:01:03;92604.25;;;16.71;92.89
12471;BME280;36499;46.484;13.832;2023-08-01T02:03:30;92600.59;;;16.72;93.22
12471;BME280;36499;46.484;13.832;2023-08-01T02:05:57;92599.00;;;16.76;93.26
12471;BME280;36499;46.484;13.832;2023-08-01T02:08:24;92594.00;;;16.79;93.00
12471;BME280;36499;46.484;13.832;2023-08-01T02:10:51;92603.22;;;16.77;91.57
12471;BME280;36499;46.484;13.832;2023-08-01T02:13:20;92595.59;;;16.75;91.44
12471;BME280;36499;46.484;13.832;2023-08-01T02:15:47;92592.69;;;16.77;91.20
12471;BME280;36499;46.484;13.832;2023-08-01T02:18:14;92590.56;;;16.74;91.12
12471;BME280;36499;46.484;13.832;2023-08-01T02:20:41;92581.63;;;16.75;91.15
12471;BME280;36499;46.484;13.832;2023-08-01T02:23:08;92573.22;;;16.73;90.55
12471;BME280;36499;46.484;13.832;2023-08-01T02:25:38;92575.06;;;16.72;90.79
12471;BME280;36499;46.484;13.832;2023-08-01T02:28:06;92576.03;;;16.51;91.60
12471;BME280;36499;46.484;13.832;2023-08-01T02:30:34;92574.25;;;16.57;91.71
12471;BME280;36499;46.484;13.832;2023-08-01T02:33:02;92571.81;;;16.55;92.27
12471;BME280;36499;46.484;13.832;2023-08-01T02:35:29;92565.25;;;16.53;93.25
12471;BME280;36499;46.484;13.832;2023-08-01T02:37:56;92569.47;;;16.54;92.19
12471;BME280;36499;46.484;13.832;2023-08-01T02:40:23;92568.13;;;16.51;91.60
12471;BME280;36499;46.484;13.832;2023-08-01T02:42:52;92566.03;;;16.48;91.98
12471;BME280;36499;46.484;13.832;2023-08-01T02:45:19;92559.97;;;16.48;91.78
12471;BME280;36499;46.484;13.832;2023-08-01T02:47:47;92556.31;;;16.49;91.81
12471;BME280;36499;46.484;13.832;2023-08-01T02:50:15;92549.19;;;16.44;93.40
12471;BME280;36499;46.484;13.832;2023-08-01T02:52:42;92548.41;;;16.49;93.83
12471;BME280;36499;46.484;13.832;2023-08-01T02:55:09;92541.56;;;16.53;92.83
12471;BME280;36499;46.484;13.832;2023-08-01T02:57:36;92546.84;;;16.43;90.75
12471;BME280;36499;46.484;13.832;2023-08-01T03:00:05;92544.72;;;16.40;91.30
12471;BME280;36499;46.484;13.832;2023-08-01T03:02:37;92552.06;;;16.32;92.61
12471;BME280;36499;46.484;13.832;2023-08-01T03:05:08;92554.16;;;16.30;94.62
12471;BME280;36499;46.484;13.832;2023-08-01T03:07:35;92560.22;;;16.36;94.46
12471;BME280;36499;46.484;13.832;2023-08-01T03:10:03;92560.22;;;16.36;94.26
12471;BME280;36499;46.484;13.832;2023-08-01T03:12:32;92549.19;;;16.39;94.01
12471;BME280;36499;46.484;13.832;2023-08-01T03:14:59;92541.31;;;16.39;93.60
12471;BME280;36499;46.484;13.832;2023-08-01T03:17:26;92537.09;;;16.38;92.73
12471;BME280;36499;46.484;13.832;2023-08-01T03:19:53;92541.28;;;16.34;93.36
12471;BME280;36499;46.484;13.832;2023-08-01T03:22:22;92537.88;;;16.33;93.66
12471;BME280;36499;46.484;13.832;2023-08-01T03:24:49;92529.97;;;16.39;93.52
12471;BME280;36499;46.484;13.832;2023-08-01T03:27:16;92518.66;;;16.38;92.38
12471;BME280;36499;46.484;13.832;2023-08-01T03:29:43;92517.06;;;16.37;92.29
12471;BME280;36499;46.484;13.832;2023-08-01T03:32:10;92512.09;;;16.36;92.30
12471;BME280;36499;46.484;13.832;2023-08-01T03:34:37;92504.47;;;16.39;92.03
12471;BME280;36499;46.484;13.832;2023-08-01T03:37:06;92504.97;;;16.36;91.88
12471;BME280;36499;46.484;13.832;2023-08-01T03:39:35;92497.88;;;16.37;92.03
12471;BME280;36499;46.484;13.832;2023-08-01T03:42:03;92494.75;;;16.40;92.35
12471;BME280;36499;46.484;13.832;2023-08-01T03:44:30;92486.84;;;16.40;91.96
12471;BME280;36499;46.484;13.832;2023-08-01T03:46:57;92492.63;;;16.42;91.62
12471;BME280;36499;46.484;13.832;2023-08-01T03:49:25;92491.81;;;16.41;91.48
12471;BME280;36499;46.484;13.832;2023-08-01T03:51:52;92486.31;;;16.43;91.93
12471;BME280;36499;46.484;13.832;2023-08-01T03:54:19;92483.41;;;16.39;90.73
12471;BME280;36499;46.484;13.832;2023-08-01T03:56:47;92497.34;;;16.35;90.90
12471;BME280;36499;46.484;13.832;2023-08-01T03:59:15;92494.47;;;16.31;91.27
12471;BME280;36499;46.484;13.832;2023-08-01T04:01:43;92488.41;;;16.30;91.96
12471;BME280;36499;46.484;13.832;2023-08-01T04:04:10;92490.00;;;16.31;91.96
12471;BME280;36499;46.484;13.832;2023-08-01T04:06:37;92486.81;;;16.29;91.80
12471;BME280;36499;46.484;13.832;2023-08-01T04:09:04;92483.13;;;16.30;92.22
12471;BME280;36499;46.484;13.832;2023-08-01T04:11:32;92483.13;;;16.30;92.51
12471;BME280;36499;46.484;13.832;2023-08-01T04:14:03;92481.84;;;16.38;91.85
12471;BME280;36499;46.484;13.832;2023-08-01T04:16:30;92469.72;;;16.37;90.20
12471;BME280;36499;46.484;13.832;2023-08-01T04:18:57;92475.25;;;16.36;90.01
12471;BME280;36499;46.484;13.832;2023-08-01T04:21:24;92481.56;;;16.35;89.82
12471;BME280;36499;46.484;13.832;2023-08-01T04:23:51;92485.25;;;16.33;90.63
12471;BME280;36499;46.484;13.832;2023-08-01T04:26:18;92487.88;;;16.33;91.65
12471;BME280;36499;46.484;13.832;2023-08-01T04:28:46;92487.88;;;16.39;92.71
12471;BME280;36499;46.484;13.832;2023-08-01T04:31:15;92480.28;;;16.47;93.38
12471;BME280;36499;46.484;13.832;2023-08-01T04:33:42;92476.34;;;16.60;93.66
12471;BME280;36499;46.484;13.832;2023-08-01T04:36:10;92472.38;;;16.72;93.45
12471;BME280;36499;46.484;13.832;2023-08-01T04:38:37;92472.38;;;16.83;93.45
12471;BME280;36499;46.484;13.832;2023-08-01T04:41:04;92472.88;;;16.95;93.73
12471;BME280;36499;46.484;13.832;2023-08-01T04:43:31;92467.34;;;17.06;93.78
12471;BME280;36499;46.484;13.832;2023-08-01T04:45:58;92476.28;;;17.15;93.76
12471;BME280;36499;46.484;13.832;2023-08-01T04:48:27;92465.97;;;17.24;93.38
12471;BME280;36499;46.484;13.832;2023-08-01T04:50:54;92454.63;;;17.34;93.53
12471;BME280;36499;46.484;13.832;2023-08-01T04:53:21;92440.88;;;17.42;93.60
12471;BME280;36499;46.484;13.832;2023-08-01T04:55:48;92440.56;;;17.53;93.45
12471;BME280;36499;46.484;13.832;2023-08-01T04:58:15;92436.88;;;17.64;93.80
12471;BME280;36499;46.484;13.832;2023-08-01T05:00:42;92434.97;;;17.70;93.47
12471;BME280;36499;46.484;13.832;2023-08-01T05:03:09;92434.69;;;17.77;93.56
12471;BME280;36499;46.484;13.832;2023-08-01T05:05:38;92438.09;;;17.82;93.12
12471;BME280;36499;46.484;13.832;2023-08-01T05:08:05;92439.66;;;17.83;92.94
12471;BME280;36499;46.484;13.832;2023-08-01T05:10:32;92446.53;;;17.84;93.07
12471;BME280;36499;46.484;13.832;2023-08-01T05:12:59;92447.28;;;17.85;93.29
12471;BME280;36499;46.484;13.832;2023-08-01T05:15:26;92455.72;;;17.87;93.54
12471;BME280;36499;46.484;13.832;2023-08-01T05:17:53;92456.22;;;17.89;93.57
12471;BME280;36499;46.484;13.832;2023-08-01T05:20:21;92457.56;;;17.91;93.53
12471;BME280;36499;46.484;13.832;2023-08-01T05:22:49;92452.47;;;18.00;93.48
12471;BME280;36499;46.484;13.832;2023-08-01T05:25:16;92443.72;;;18.09;93.45
12471;BME280;36499;46.484;13.832;2023-08-01T05:27:43;92448.94;;;18.19;93.53
12471;BME280;36499;46.484;13.832;2023-08-01T05:30:11;92441.25;;;18.23;93.28
12471;BME280;36499;46.484;13.832;2023-08-01T05:32:38;92430.91;;;18.32;93.68
12471;BME280;36499;46.484;13.832;2023-08-01T05:35:07;92421.03;;;18.42;94.01
12471;BME280;36499;46.484;13.832;2023-08-01T05:37:34;92418.09;;;18.54;94.12
12471;BME280;36499;46.484;13.832;2023-08-01T05:40:05;92412.72;;;18.64;93.86
12471;BME280;36499;46.484;13.832;2023-08-01T05:42:32;92397.88;;;18.68;93.47
12471;BME280;36499;46.484;13.832;2023-08-01T05:44:59;92400.53;;;18.68;93.01
12471;BME280;36499;46.484;13.832;2023-08-01T05:47:26;92403.13;;;18.73;93.06
12471;BME280;36499;46.484;13.832;2023-08-01T05:49:53;92396.75;;;18.79;92.89
12471;BME280;36499;46.484;13.832;2023-08-01T05:52:20;92388.97;;;18.88;92.51
12471;BME280;36499;46.484;13.832;2023-08-01T05:54:47;92395.50;;;18.95;92.57
12471;BME280;36499;46.484;13.832;2023-08-01T05:57:15;92395.91;;;19.07;92.69
12471;BME280;36499;46.484;13.832;2023-08-01T05:59:42;92380.63;;;19.28;92.11
12471;BME280;36499;46.484;13.832;2023-08-01T06:02:09;92387.03;;;19.46;90.57
12471;BME280;36499;46.484;13.832;2023-08-01T06:04:36;92397.63;;;19.64;91.10
12471;BME280;36499;46.484;13.832;2023-08-01T06:07:05;92399.44;;;19.88;88.95
12471;BME280;36499;46.484;13.832;2023-08-01T06:09:32;92393.34;;;20.06;88.13
12471;BME280;36499;46.484;13.832;2023-08-01T06:11:59;92385.63;;;20.28;87.46
12471;BME280;36499;46.484;13.832;2023-08-01T06:14:27;92380.88;;;20.44;87.33
12471;BME280;36499;46.484;13.832;2023-08-01T06:16:54;92371.34;;;20.62;86.58
12471;BME280;36499;46.484;13.832;2023-08-01T06:19:21;92359.88;;;20.80;85.19
12471;BME280;36499;46.484;13.832;2023-08-01T06:21:49;92353.22;;;20.96;85.94
12471;BME280;36499;46.484;13.832;2023-08-01T06:24:16;92358.41;;;21.01;83.11
12471;BME280;36499;46.484;13.832;2023-08-01T06:26:43;92361.41;;;21.13;83.62
12471;BME280;36499;46.484;13.832;2023-08-01T06:29:10;92351.50;;;21.19;84.12
12471;BME280;36499;46.484;13.832;2023-08-01T06:31:38;92354.72;;;21.16;82.28
12471;BME280;36499;46.484;13.832;2023-08-01T06:36:32;92362.19;;;21.14;83.23
12471;BME280;36499;46.484;13.832;2023-08-01T06:38:59;92353.72;;;21.12;83.46
12471;BME280;36499;46.484;13.832;2023-08-01T06:41:26;92344.28;;;21.05;82.70
12471;BME280;36499;46.484;13.832;2023-08-01T06:43:53;92337.31;;;21.10;82.25
12471;BME280;36499;46.484;13.832;2023-08-01T06:46:20;92337.81;;;21.12;82.57
12471;BME280;36499;46.484;13.832;2023-08-01T06:48:48;92335.19;;;21.12;83.01
12471;BME280;36499;46.484;13.832;2023-08-01T06:51:15;92328.72;;;21.18;82.29
12471;BME280;36499;46.484;13.832;2023-08-01T06:53:43;92330.56;;;21.17;82.79
12471;BME280;36499;46.484;13.832;2023-08-01T06:56:10;92315.38;;;21.23;82.52
12471;BME280;36499;46.484;13.832;2023-08-01T06:58:37;92312.13;;;21.26;82.15
12471;BME280;36499;46.484;13.832;2023-08-01T07:01:04;92314.06;;;21.34;81.36
12471;BME280;36499;46.484;13.832;2023-08-01T07:03:31;92305.53;;;21.37;81.38
12471;BME280;36499;46.484;13.832;2023-08-01T07:06:00;92313.06;;;21.43;80.80
12471;BME280;36499;46.484;13.832;2023-08-01T07:08:27;92309.00;;;21.46;81.11
12471;BME280;36499;46.484;13.832;2023-08-01T07:10:54;92303.16;;;21.49;80.85
12471;BME280;36499;46.484;13.832;2023-08-01T07:13:21;92295.66;;;21.51;80.76
12471;BME280;36499;46.484;13.832;2023-08-01T07:15:48;92297.72;;;21.54;79.60
12471;BME280;36499;46.484;13.832;2023-08-01T07:18:15;92308.69;;;21.61;80.07
12471;BME280;36499;46.484;13.832;2023-08-01T07:20:42;92308.69;;;21.61;78.97
12471;BME280;36499;46.484;13.832;2023-08-01T07:23:10;92306.34;;;21.60;78.90
12471;BME280;36499;46.484;13.832;2023-08-01T07:25:37;92313.94;;;21.52;78.77
12471;BME280;36499;46.484;13.832;2023-08-01T07:28:04;92317.94;;;21.64;78.86
12471;BME280;36499;46.484;13.832;2023-08-01T07:30:31;92316.53;;;21.66;79.65
12471;BME280;36499;46.484;13.832;2023-08-01T07:32:58;92313.56;;;21.45;79.02
12471;BME280;36499;46.484;13.832;2023-08-01T07:35:26;92318.91;;;21.68;79.15
12471;BME280;36499;46.484;13.832;2023-08-01T07:45:17;92313.38;;;21.78;79.15
12471;BME280;36499;46.484;13.832;2023-08-01T07:47:44;92292.13;;;21.91;79.93
12471;BME280;36499;46.484;13.832;2023-08-01T07:50:12;92296.25;;;21.84;78.00
12471;BME280;36499;46.484;13.832;2023-08-01T07:52:39;92301.75;;;21.87;78.57
12471;BME280;36499;46.484;13.832;2023-08-01T07:55:07;92301.75;;;21.87;77.71
12471;BME280;36499;46.484;13.832;2023-08-01T07:57:34;92317.09;;;21.77;77.77
12471;BME280;36499;46.484;13.832;2023-08-01T08:00:01;92311.97;;;21.44;79.06
12471;BME280;36499;46.484;13.832;2023-08-01T08:02:29;92302.06;;;21.36;79.14
12471;BME280;36499;46.484;13.832;2023-08-01T08:04:57;92314.03;;;21.47;78.83
12471;BME280;36499;46.484;13.832;2023-08-01T08:07:24;92314.59;;;21.58;78.80
12471;BME280;36499;46.484;13.832;2023-08-01T08:09:51;92297.00;;;21.62;78.79
12471;BME280;36499;46.484;13.832;2023-08-01T08:12:20;92300.50;;;21.49;78.32
12471;BME280;36499;46.484;13.832;2023-08-01T08:14:47;92291.09;;;21.65;78.71
12471;BME280;36499;46.484;13.832;2023-08-01T08:17:15;92298.31;;;21.51;78.93
12471;BME280;36499;46.484;13.832;2023-08-01T08:19:44;92293.38;;;21.58;78.96
12471;BME280;36499;46.484;13.832;2023-08-01T08:22:11;92292.03;;;21.47;79.59
12471;BME280;36499;46.484;13.832;2023-08-01T08:24:38;92272.72;;;21.33;79.32
12471;BME280;36499;46.484;13.832;2023-08-01T08:27:05;92271.41;;;21.44;79.26
12471;BME280;36499;46.484;13.832;2023-08-01T08:29:33;92280.75;;;21.41;79.50
12471;BME280;36499;46.484;13.832;2023-08-01T08:32:00;92277.91;;;21.38;79.00
12471;BME280;36499;46.484;13.832;2023-08-01T08:34:27;92278.69;;;21.38;79.81
12471;BME280;36499;46.484;13.832;2023-08-01T08:36:55;92274.84;;;21.44;80.03
12471;BME280;36499;46.484;13.832;2023-08-01T08:39:22;92274.09;;;21.30;80.62
12471;BME280;36499;46.484;13.832;2023-08-01T08:41:52;92281.53;;;21.42;80.71
12471;BME280;36499;46.484;13.832;2023-08-01T08:44:20;92276.13;;;21.47;80.32
12471;BME280;36499;46.484;13.832;2023-08-01T08:46:51;92270.22;;;21.50;80.33
12471;BME280;36499;46.484;13.832;2023-08-01T08:49:19;92273.00;;;21.45;79.67
12471;BME280;36499;46.484;13.832;2023-08-01T08:51:48;92268.19;;;21.33;80.27
12471;BME280;36499;46.484;13.832;2023-08-01T08:54:18;92279.09;;;21.32;80.52
12471;BME280;36499;46.484;13.832;2023-08-01T08:56:47;92278.13;;;21.28;80.01
12471;BME280;36499;46.484;13.832;2023-08-01T08:59:15;92277.13;;;21.24;81.25
12471;BME280;36499;46.484;13.832;2023-08-01T09:01:42;92286.56;;;21.02;83.16
12471;BME280;36499;46.484;13.832;2023-08-01T09:04:10;92291.19;;;21.11;83.07
12471;BME280;36499;46.484;13.832;2023-08-01T09:06:44;92288.53;;;20.97;84.26
12471;BME280;36499;46.484;13.832;2023-08-01T09:09:13;92299.72;;;20.94;84.98
12471;BME280;36499;46.484;13.832;2023-08-01T09:11:45;92288.72;;;20.87;83.88
12471;BME280;36499;46.484;13.832;2023-08-01T09:14:13;92274.59;;;20.78;85.95
12471;BME280;36499;46.484;13.832;2023-08-01T09:16:41;92267.75;;;20.77;86.31
12471;BME280;36499;46.484;13.832;2023-08-01T09:19:10;92278.22;;;20.82;86.58
12471;BME280;36499;46.484;13.832;2023-08-01T09:21:39;92274.31;;;20.79;87.13
12471;BME280;36499;46.484;13.832;2023-08-01T09:24:11;92269.69;;;20.71;89.35
12471;BME280;36499;46.484;13.832;2023-08-01T09:26:39;92278.81;;;20.79;89.40
12471;BME280;36499;46.484;13.832;2023-08-01T09:29:08;92277.94;;;20.83;89.59
12471;BME280;36499;46.484;13.832;2023-08-01T09:31:38;92285.19;;;20.78;89.96
12471;BME280;36499;46.484;13.832;2023-08-01T09:34:19;92267.81;;;20.85;89.47
12471;BME280;36499;46.484;13.832;2023-08-01T09:36:46;92255.94;;;20.83;90.14
12471;BME280;36499;46.484;13.832;2023-08-01T09:39:17;92270.28;;;20.95;90.30
12471;BME280;36499;46.484;13.832;2023-08-01T09:41:45;92249.66;;;20.79;90.43
12471;BME280;36499;46.484;13.832;2023-08-01T09:44:16;92235.72;;;21.00;90.27
12471;BME280;36499;46.484;13.832;2023-08-01T09:46:43;92262.53;;;21.13;91.13
12471;BME280;36499;46.484;13.832;2023-08-01T09:52:52;92275.78;;;21.26;89.24
12471;BME280;36499;46.484;13.832;2023-08-01T09:55:26;92247.09;;;21.28;89.75
12471;BME280;36499;46.484;13.832;2023-08-01T09:57:59;92250.16;;;21.22;90.89
12471;BME280;36499;46.484;13.832;2023-08-01T10:00:29;92245.84;;;21.12;89.89
12471;BME280;36499;46.484;13.832;2023-08-01T10:02:58;92240.03;;;20.96;90.75
12471;BME280;36499;46.484;13.832;2023-08-01T10:05:30;92249.19;;;20.90;89.47
12471;BME280;36499;46.484;13.832;2023-08-01T10:08:00;92250.06;;;20.86;89.98
12471;BME280;36499;46.484;13.832;2023-08-01T10:10:27;92234.09;;;20.77;90.99
12471;BME280;36499;46.484;13.832;2023-08-01T10:12:56;92220.91;;;20.86;91.22
12471;BME280;36499;46.484;13.832;2023-08-01T10:15:24;92229.38;;;20.88;91.10
12471;BME280;36499;46.484;13.832;2023-08-01T10:17:53;92230.44;;;20.87;91.08
12471;BME280;36499;46.484;13.832;2023-08-01T10:20:21;92226.31;;;20.81;91.50
12471;BME280;36499;46.484;13.832;2023-08-01T10:22:51;92213.38;;;20.79;91.43
12471;BME280;36499;46.484;13.832;2023-08-01T10:25:19;92201.78;;;20.75;92.01
12471;BME280;36499;46.484;13.832;2023-08-01T10:27:58;92212.78;;;20.69;91.99
12471;BME280;36499;46.484;13.832;2023-08-01T10:30:26;92223.19;;;20.79;91.78
12471;BME280;36499;46.484;13.832;2023-08-01T10:32:59;92213.47;;;20.74;92.13
12471;BME280;36499;46.484;13.832;2023-08-01T10:35:37;92196.50;;;20.75;92.74
12471;BME280;36499;46.484;13.832;2023-08-01T10:38:06;92191.38;;;20.79;92.39
12471;BME280;36499;46.484;13.832;2023-08-01T10:40:37;92191.09;;;20.80;92.45
12471;BME280;36499;46.484;13.832;2023-08-01T10:43:05;92197.09;;;20.72;92.59
12471;BME280;36499;46.484;13.832;2023-08-01T10:45:32;92203.97;;;20.73;92.53
12471;BME280;36499;46.484;13.832;2023-08-01T10:48:11;92186.13;;;20.65;92.21
12471;BME280;36499;46.484;13.832;2023-08-01T10:50:39;92203.06;;;20.64;91.95
12471;BME280;36499;46.484;13.832;2023-08-01T10:53:09;92211.31;;;20.63;91.83
12471;BME280;36499;46.484;13.832;2023-08-01T10:55:45;92194.34;;;20.64;92.13
12471;BME280;36499;46.484;13.832;2023-08-01T10:58:13;92187.78;;;20.61;92.21
12471;BME280;36499;46.484;13.832;2023-08-01T11:00:41;92173.25;;;20.45;92.92
12471;BME280;36499;46.484;13.832;2023-08-01T11:03:10;92174.44;;;20.52;93.19
12471;BME280;36499;46.484;13.832;2023-08-01T11:05:37;92167.38;;;20.48;92.39
12471;BME280;36499;46.484;13.832;2023-08-01T11:08:04;92170.41;;;20.41;92.60
12471;BME280;36499;46.484;13.832;2023-08-01T11:10:32;92169.81;;;20.44;92.11
12471;BME280;36499;46.484;13.832;2023-08-01T11:13:00;92160.72;;;20.37;92.82
12471;BME280;36499;46.484;13.832;2023-08-01T11:15:27;92150.81;;;20.42;92.82
12471;BME280;36499;46.484;13.832;2023-08-01T11:17:55;92153.66;;;20.46;93.80
12471;BME280;36499;46.484;13.832;2023-08-01T11:20:25;92152.38;;;20.43;93.44
12471;BME280;36499;46.484;13.832;2023-08-01T11:22:56;92162.28;;;20.38;93.16
12471;BME280;36499;46.484;13.832;2023-08-01T11:25:38;92159.03;;;20.41;94.09
12471;BME280;36499;46.484;13.832;2023-08-01T11:28:07;92155.31;;;20.42;94.81
12471;BME280;36499;46.484;13.832;2023-08-01T11:30:35;92140.59;;;20.49;94.52
12471;BME280;36499;46.484;13.832;2023-08-01T11:33:12;92137.25;;;20.57;93.87
12471;BME280;36499;46.484;13.832;2023-08-01T11:35:41;92144.41;;;20.57;93.85
12471;BME280;36499;46.484;13.832;2023-08-01T11:38:09;92146.47;;;20.60;93.25
12471;BME280;36499;46.484;13.832;2023-08-01T11:40:37;92156.69;;;20.53;93.17
12471;BME280;36499;46.484;13.832;2023-08-01T11:43:04;92136.75;;;20.55;92.72
12471;BME280;36499;46.484;13.832;2023-08-01T11:45:32;92134.25;;;20.50;92.68
12471;BME280;36499;46.484;13.832;2023-08-01T11:47:59;92127.06;;;20.51;92.65
12471;BME280;36499;46.484;13.832;2023-08-01T11:50:26;92130.00;;;20.49;93.45
12471;BME280;36499;46.484;13.832;2023-08-01T11:52:54;92132.16;;;20.47;93.77
12471;BME280;36499;46.484;13.832;2023-08-01T11:55:25;92130.00;;;20.49;94.20
12471;BME280;36499;46.484;13.832;2023-08-01T11:57:57;92127.78;;;20.43;94.05
12471;BME280;36499;46.484;13.832;2023-08-01T12:00:27;92137.56;;;20.42;93.44
12471;BME280;36499;46.484;13.832;2023-08-01T12:03:04;92138.84;;;20.45;93.17
12471;BME280;36499;46.484;13.832;2023-08-01T12:05:32;92132.28;;;20.29;93.74
12471;BME280;36499;46.484;13.832;2023-08-01T12:08:10;92118.53;;;20.40;94.51
12471;BME280;36499;46.484;13.832;2023-08-01T12:10:39;92095.03;;;20.39;93.86
12471;BME280;36499;46.484;13.832;2023-08-01T12:13:19;92109.63;;;20.36;93.62
12471;BME280;36499;46.484;13.832;2023-08-01T12:15:46;92135.91;;;20.33;93.70
12471;BME280;36499;46.484;13.832;2023-08-01T12:18:21;92140.59;;;20.36;93.67
12471;BME280;36499;46.484;13.832;2023-08-01T12:20:48;92129.91;;;20.27;93.80
12471;BME280;36499;46.484;13.832;2023-08-01T12:23:16;92118.81;;;20.25;94.69
12471;BME280;36499;46.484;13.832;2023-08-01T12:25:44;92138.63;;;20.28;93.80
12471;BME280;36499;46.484;13.832;2023-08-01T12:28:11;92135.50;;;20.12;95.05
12471;BME280;36499;46.484;13.832;2023-08-01T12:30:39;92121.28;;;20.08;96.21
12471;BME280;36499;46.484;13.832;2023-08-01T12:33:07;92109.69;;;20.18;96.69
12471;BME280;36499;46.484;13.832;2023-08-01T12:35:34;92123.53;;;20.28;96.34
12471;BME280;36499;46.484;13.832;2023-08-01T12:38:01;92134.91;;;20.29;95.07
12471;BME280;36499;46.484;13.832;2023-08-01T12:40:29;92112.94;;;20.28;94.10
12471;BME280;36499;46.484;13.832;2023-08-01T12:42:56;92096.97;;;20.33;94.43
12471;BME280;36499;46.484;13.832;2023-08-01T12:45:24;92094.31;;;20.33;94.69
12471;BME280;36499;46.484;13.832;2023-08-01T12:47:51;92106.69;;;20.38;94.85
12471;BME280;36499;46.484;13.832;2023-08-01T12:50:18;92106.19;;;20.36;94.36
12471;BME280;36499;46.484;13.832;2023-08-01T12:52:45;92102.28;;;20.33;94.73
12471;BME280;36499;46.484;13.832;2023-08-01T12:55:12;92100.88;;;20.36;95.74
12471;BME280;36499;46.484;13.832;2023-08-01T12:57:40;92079.41;;;20.37;96.45
12471;BME280;36499;46.484;13.832;2023-08-01T13:00:08;92080.59;;;20.45;96.88
12471;BME280;36499;46.484;13.832;2023-08-01T13:02:36;92100.00;;;20.54;95.96
12471;BME280;36499;46.484;13.832;2023-08-01T13:05:04;92096.06;;;20.65;95.16
12471;BME280;36499;46.484;13.832;2023-08-01T13:07:32;92092.69;;;20.73;95.05